Maxville, Missouri
Current Conditions -  °F | °C
As of 10:53 AM on Tuesday 27 Jan 2015 (Local Time) from KCPS Reporting Station
Broken Clouds Broken Clouds  
Wind Chill: 35°   Ceiling: 2600
Heat Index: 42°   Visibility: 10mi
Dew Point: 33°   Wind: 15mph
Humidity: 70%   Direction: 350°N
Pressure: 30.17"   Gusts: NA
Location:  38.4305°N, 90.3985°W
Report Text: KCPS 271653Z 35013KT 10SM BKN026 06/01 A3017 RMK AO2 SLP219 T00560006
Loading
Personal Weather Stations






























Interactive Weather Map New forecast layout! Learn more

10-Day Weather Forecast

Advertisements
Track Severe Weather on mobile